Time;durP1;ratioP1;P1;durP2;ratioP2;P2;SDS_P1;SDS_P2;PMS_P1;PMS_P2;Temp;Humidity;BMP_temperature;BMP_pressure;BME280_temperature;BME280_humidity;BME280_pressure;Samples;Min_cycle;Max_cycle;Signal;HPM_P1;HPM_P2
2022/01/06 00:01:45;;;;;;;15.50;10.57;;;20.80;54.60;;;;;;4956175;29;20031;-75
2022/01/06 00:04:11;;;;;;;16.25;10.77;;;20.80;54.60;;;;;;4939203;29;20026;-75
2022/01/06 00:06:40;;;;;;;15.75;10.75;;;20.70;54.60;;;;;;4938795;29;20244;-74
2022/01/06 00:09:08;;;;;;;16.38;10.57;;;20.70;54.70;;;;;;4956356;29;20038;-75
2022/01/06 00:11:34;;;;;;;16.95;10.65;;;20.80;54.70;;;;;;4956125;29;20035;-75
2022/01/06 00:14:16;;;;;;;16.10;10.82;;;20.70;54.70;;;;;;4956319;29;20031;-74
2022/01/06 00:24:48;;;;;;;16.15;10.73;;;20.70;54.70;;;;;;4994867;28;20093;-77
2022/01/06 00:27:14;;;;;;;15.90;10.15;;;20.80;54.80;;;;;;4993814;28;20477;-76
2022/01/06 00:29:41;;;;;;;14.63;10.23;;;20.70;54.70;;;;;;4977298;28;20030;-76
2022/01/06 00:32:07;;;;;;;15.85;9.82;;;20.70;54.70;;;;;;4994534;28;20105;-76
2022/01/06 00:34:33;;;;;;;15.98;9.70;;;20.70;54.70;;;;;;4977592;28;20402;-77
2022/01/06 00:36:58;;;;;;;15.30;10.20;;;20.80;54.70;;;;;;4994150;28;20030;-76
2022/01/06 00:39:27;;;;;;;15.88;10.23;;;20.70;54.70;;;;;;4977102;28;20089;-77
2022/01/06 00:41:58;;;;;;;15.10;10.17;;;20.70;54.70;;;;;;4994387;28;20018;-76
2022/01/06 00:44:24;;;;;;;14.13;9.85;;;20.70;54.70;;;;;;4960767;28;20030;-76
2022/01/06 00:46:51;;;;;;;15.95;9.90;;;20.70;54.70;;;;;;4976790;28;20081;-76
2022/01/06 00:49:17;;;;;;;16.05;10.02;;;20.70;54.70;;;;;;4994320;28;20045;-76
2022/01/06 00:51:44;;;;;;;14.60;9.52;;;20.70;54.60;;;;;;4994228;28;20034;-77
2022/01/06 00:54:10;;;;;;;15.02;9.73;;;20.70;54.70;;;;;;4994267;28;20031;-76
2022/01/06 00:56:36;;;;;;;13.95;9.43;;;20.70;54.70;;;;;;4976010;28;20108;-76
2022/01/06 00:59:02;;;;;;;14.55;9.55;;;20.70;54.70;;;;;;4994097;28;20035;-76
2022/01/06 01:01:28;;;;;;;14.88;9.00;;;20.70;54.60;;;;;;4977050;28;20026;-74
2022/01/06 01:03:53;;;;;;;14.00;9.38;;;20.70;54.50;;;;;;4976666;28;20033;-74
2022/01/06 01:06:19;;;;;;;14.30;9.38;;;20.70;54.50;;;;;;4976175;28;20023;-77
2022/01/06 01:08:45;;;;;;;14.43;9.20;;;20.80;54.60;;;;;;4993912;28;20062;-75
2022/01/06 01:11:11;;;;;;;14.93;8.95;;;20.70;54.50;;;;;;4976621;28;20390;-74
2022/01/06 01:13:53;;;;;;;14.10;9.23;;;20.70;54.40;;;;;;4993811;28;20026;-74
2022/01/06 01:16:30;;;;;;;12.48;8.63;;;20.70;54.40;;;;;;4993163;28;20038;-74
2022/01/06 01:18:58;;;;;;;13.93;9.10;;;20.80;54.50;;;;;;4976438;28;20105;-74
2022/01/06 01:21:28;;;;;;;13.15;8.20;;;20.70;54.40;;;;;;4993630;28;20501;-75
2022/01/06 01:23:54;;;;;;;11.23;8.40;;;20.70;54.50;;;;;;4993691;28;20029;-76
2022/01/06 01:26:21;;;;;;;12.75;8.48;;;20.70;54.50;;;;;;4993330;28;20030;-76
2022/01/06 01:28:47;;;;;;;13.95;8.88;;;20.70;54.40;;;;;;4976055;28;20081;-76
2022/01/06 01:33:43;;;;;;;13.95;8.60;;;20.70;54.40;;;;;;4993989;28;20382;-76
2022/01/06 01:36:13;;;;;;;13.13;8.90;;;20.70;54.30;;;;;;4992947;28;20134;-76
2022/01/06 01:38:42;;;;;;;12.55;8.30;;;20.70;54.50;;;;;;4975897;28;20104;-76
2022/01/06 01:41:09;;;;;;;11.60;8.00;;;20.70;54.50;;;;;;4993376;28;20022;-76
2022/01/06 01:43:35;;;;;;;12.73;8.30;;;20.70;54.40;;;;;;4993200;28;20034;-76
2022/01/06 01:46:09;;;;;;;12.85;8.80;;;20.70;54.40;;;;;;4975707;28;20027;-76
2022/01/06 01:48:39;;;;;;;11.27;7.82;;;20.70;54.40;;;;;;4993178;28;20030;-76
2022/01/06 01:51:08;;;;;;;12.95;8.13;;;20.70;55.10;;;;;;4993160;28;20066;-76
2022/01/06 01:53:38;;;;;;;14.00;8.45;;;20.70;54.50;;;;;;4975556;28;20030;-76
2022/01/06 01:56:06;;;;;;;12.68;8.60;;;20.70;54.50;;;;;;4991983;28;20026;-76
2022/01/06 01:58:33;;;;;;;11.75;7.93;;;20.70;54.50;;;;;;4992764;28;20062;-76
2022/01/06 02:00:59;;;;;;;11.85;7.85;;;20.70;54.40;;;;;;4993010;28;20077;-76
2022/01/06 02:03:25;;;;;;;11.90;7.93;;;20.70;54.50;;;;;;4975553;28;20498;-76
2022/01/06 02:05:50;;;;;;;13.10;8.48;;;20.70;54.40;;;;;;4992444;28;20449;-76
2022/01/06 02:08:16;;;;;;;12.70;8.35;;;20.70;54.50;;;;;;4992811;28;20036;-76
2022/01/06 02:10:42;;;;;;;10.77;7.45;;;20.70;54.50;;;;;;4992807;28;20057;-76
2022/01/06 02:13:08;;;;;;;12.23;8.10;;;20.70;54.30;;;;;;4992697;28;20026;-76
2022/01/06 02:15:33;;;;;;;12.82;8.00;;;20.60;54.40;;;;;;4992237;28;20494;-76
2022/01/06 02:17:59;;;;;;;11.50;7.55;;;20.70;54.40;;;;;;4958800;28;20041;-76
2022/01/06 02:20:25;;;;;;;12.68;7.80;;;20.60;54.40;;;;;;4975268;28;20057;-76
2022/01/06 02:22:51;;;;;;;12.07;8.10;;;20.60;54.30;;;;;;4992462;28;20030;-76
2022/01/06 02:25:35;;;;;;;12.15;7.97;;;20.60;54.00;;;;;;4992736;28;20061;-76
2022/01/06 02:28:03;;;;;;;13.82;8.05;;;20.70;54.10;;;;;;4992363;28;20442;-76
2022/01/06 02:30:32;;;;;;;11.40;7.30;;;20.70;54.20;;;;;;4992518;28;20394;-76
2022/01/06 02:33:00;;;;;;;13.57;8.38;;;20.70;54.10;;;;;;4992492;28;20109;-76
2022/01/06 02:35:27;;;;;;;10.20;7.30;;;20.70;54.00;;;;;;4974995;28;20031;-76
2022/01/06 02:37:53;;;;;;;12.60;7.65;;;20.70;53.90;;;;;;4992162;28;20038;-76
2022/01/06 02:40:22;;;;;;;11.60;7.38;;;20.70;54.00;;;;;;4992360;28;20022;-76
2022/01/06 02:42:58;;;;;;;10.70;6.97;;;20.70;54.00;;;;;;4992467;28;20490;-75
2022/01/06 02:45:28;;;;;;;11.45;7.55;;;20.70;54.00;;;;;;4992358;28;20045;-76
2022/01/06 02:47:55;;;;;;;11.68;7.22;;;20.70;54.10;;;;;;4974571;28;20034;-76
2022/01/06 02:50:21;;;;;;;12.13;7.90;;;20.70;54.10;;;;;;4975100;28;20027;-76
2022/01/06 02:52:47;;;;;;;12.07;7.50;;;20.70;54.00;;;;;;4975162;28;20109;-76
2022/01/06 02:55:14;;;;;;;10.57;7.15;;;20.70;54.10;;;;;;4992310;28;20035;-76
2022/01/06 02:57:42;;;;;;;11.35;7.05;;;20.70;54.20;;;;;;4991989;28;20035;-76
2022/01/06 03:00:12;;;;;;;9.82;6.70;;;20.70;54.10;;;;;;4974936;28;20030;-76
2022/01/06 03:02:41;;;;;;;11.13;7.20;;;20.70;53.90;;;;;;4992475;28;20533;-76
2022/01/06 03:05:07;;;;;;;9.82;6.55;;;20.60;54.00;;;;;;4992458;28;20041;-76
2022/01/06 03:07:33;;;;;;;11.57;7.20;;;20.60;54.10;;;;;;4974990;28;20039;-76
2022/01/06 03:10:02;;;;;;;9.20;6.55;;;20.60;54.10;;;;;;4978905;28;20065;-76
2022/01/06 03:12:33;;;;;;;11.05;6.93;;;20.60;54.20;;;;;;4996089;28;20112;-76
2022/01/06 03:14:59;;;;;;;11.05;6.70;;;20.60;54.10;;;;;;4978559;28;20105;-76
2022/01/06 03:17:25;;;;;;;11.30;7.28;;;20.60;54.10;;;;;;4995475;28;20401;-76
2022/01/06 03:19:51;;;;;;;11.10;6.65;;;20.60;54.10;;;;;;4995886;28;20113;-76
2022/01/06 03:22:16;;;;;;;10.70;6.82;;;20.60;54.10;;;;;;4995532;28;20030;-76
2022/01/06 03:24:42;;;;;;;10.45;6.50;;;20.60;54.10;;;;;;4995815;28;20038;-76
2022/01/06 03:27:08;;;;;;;9.07;6.68;;;20.60;54.70;;;;;;4978073;28;20105;-76
2022/01/06 03:29:34;;;;;;;9.80;6.47;;;20.60;54.10;;;;;;4978361;28;20061;-77
2022/01/06 03:31:59;;;;;;;10.45;6.55;;;20.60;54.00;;;;;;4996093;28;20058;-76
2022/01/06 03:34:32;;;;;;;10.35;6.18;;;20.60;54.00;;;;;;4995621;28;20470;-76
2022/01/06 03:37:01;;;;;;;9.80;6.53;;;20.60;54.50;;;;;;4995228;28;20035;-76
2022/01/06 03:39:26;;;;;;;9.07;6.33;;;20.60;54.00;;;;;;4995461;28;20541;-76
2022/01/06 03:41:52;;;;;;;8.82;5.82;;;20.60;53.80;;;;;;4995557;28;20030;-76
2022/01/06 03:44:18;;;;;;;10.02;6.25;;;20.60;53.80;;;;;;4995413;28;20273;-76
2022/01/06 03:46:44;;;;;;;9.93;5.97;;;20.60;53.80;;;;;;4961888;28;20501;-76
2022/01/06 03:49:10;;;;;;;9.88;6.30;;;20.60;53.90;;;;;;4978133;28;20026;-76
2022/01/06 03:51:36;;;;;;;8.88;5.82;;;20.60;53.90;;;;;;4995734;28;20540;-75
2022/01/06 03:54:02;;;;;;;8.80;5.78;;;20.60;53.80;;;;;;4996391;28;20035;-76
2022/01/06 03:56:28;;;;;;;11.23;6.35;;;20.60;53.50;;;;;;4977705;28;20041;-75
2022/01/06 03:58:53;;;;;;;9.32;6.13;;;20.60;53.50;;;;;;4995046;28;20030;-76
2022/01/06 04:01:19;;;;;;;10.07;6.20;;;20.60;53.60;;;;;;4995242;28;20061;-76
2022/01/06 04:03:47;;;;;;;8.18;5.70;;;20.60;53.70;;;;;;4995205;28;20061;-76
2022/01/06 04:06:14;;;;;;;9.65;6.25;;;20.60;54.30;;;;;;4994679;28;20030;-76
2022/01/06 04:08:39;;;;;;;10.27;6.18;;;20.60;53.60;;;;;;4995075;28;20044;-77
2022/01/06 04:11:06;;;;;;;8.43;5.88;;;20.60;53.70;;;;;;4977627;28;20478;-76
2022/01/06 04:13:33;;;;;;;8.75;5.57;;;20.60;53.70;;;;;;4994982;28;20030;-76
2022/01/06 04:16:01;;;;;;;8.40;5.72;;;20.60;53.60;;;;;;4994339;28;20061;-76
2022/01/06 04:18:28;;;;;;;9.52;5.80;;;20.60;53.70;;;;;;4994935;28;20085;-76
2022/01/06 04:20:54;;;;;;;8.73;6.03;;;20.60;53.70;;;;;;4960271;28;20482;-76
2022/01/06 04:23:19;;;;;;;8.55;5.85;;;20.60;53.70;;;;;;4994780;28;20033;-76
2022/01/06 04:25:45;;;;;;;7.95;5.80;;;20.60;53.70;;;;;;4994434;28;20403;-76
2022/01/06 04:28:11;;;;;;;8.98;6.10;;;20.60;53.70;;;;;;4994493;28;20046;-76
2022/01/06 04:30:36;;;;;;;9.95;6.00;;;20.60;53.70;;;;;;4994418;28;20057;-76
2022/01/06 04:33:02;;;;;;;11.10;5.88;;;20.60;53.70;;;;;;4994708;28;20451;-76
2022/01/06 04:35:28;;;;;;;8.52;5.60;;;20.60;53.70;;;;;;4977233;28;20041;-76
2022/01/06 04:37:54;;;;;;;8.23;5.40;;;20.60;53.70;;;;;;4976726;28;20072;-76
2022/01/06 04:40:20;;;;;;;7.95;5.47;;;20.60;53.70;;;;;;4994284;28;20118;-75
2022/01/06 04:42:45;;;;;;;9.35;5.63;;;20.60;53.80;;;;;;4977085;28;20058;-76
2022/01/06 04:45:11;;;;;;;7.80;5.28;;;20.60;53.70;;;;;;4994388;28;20022;-76
2022/01/06 04:47:37;;;;;;;8.70;5.60;;;20.60;53.70;;;;;;4993936;28;20030;-76
2022/01/06 04:50:03;;;;;;;8.18;5.57;;;20.60;53.70;;;;;;4994533;28;20038;-76
2022/01/06 04:52:29;;;;;;;9.05;5.43;;;20.60;53.60;;;;;;4977016;28;20395;-76
2022/01/06 04:54:55;;;;;;;8.88;5.68;;;20.60;53.70;;;;;;4994521;28;20026;-76
2022/01/06 04:57:20;;;;;;;8.50;5.57;;;20.60;53.50;;;;;;4993752;28;20030;-76
2022/01/06 04:59:46;;;;;;;8.25;5.30;;;20.50;53.70;;;;;;4993974;28;20034;-76
2022/01/06 05:02:12;;;;;;;8.35;5.43;;;20.60;53.80;;;;;;4993620;28;20025;-76
2022/01/06 05:04:37;;;;;;;8.48;5.63;;;20.60;53.70;;;;;;4994078;28;20022;-76
2022/01/06 05:07:03;;;;;;;8.05;5.55;;;20.50;53.60;;;;;;4993482;28;20046;-76
2022/01/06 05:09:29;;;;;;;8.27;5.25;;;20.60;53.60;;;;;;4993922;28;20109;-76
2022/01/06 05:11:55;;;;;;;7.93;5.30;;;20.60;53.60;;;;;;4993781;28;20117;-76
2022/01/06 05:14:20;;;;;;;9.35;5.20;;;20.50;53.50;;;;;;4993942;28;20084;-76
2022/01/06 05:16:46;;;;;;;7.55;4.90;;;20.60;53.60;;;;;;4975892;28;20034;-76
2022/01/06 05:19:12;;;;;;;7.95;5.38;;;20.50;53.50;;;;;;4993715;28;20391;-76
2022/01/06 05:21:38;;;;;;;8.55;5.55;;;20.60;53.50;;;;;;4993713;28;20023;-76
2022/01/06 05:24:11;;;;;;;7.80;5.43;;;20.60;53.40;;;;;;4993689;28;20022;-76
2022/01/06 05:26:38;;;;;;;7.40;5.03;;;20.60;53.40;;;;;;4975799;28;20035;-76
2022/01/06 05:29:06;;;;;;;7.30;4.65;;;20.60;53.50;;;;;;4993576;28;20037;-76
2022/01/06 05:31:32;;;;;;;8.32;4.82;;;20.60;53.40;;;;;;4976056;28;20069;-76
2022/01/06 05:33:58;;;;;;;7.57;5.13;;;20.60;53.40;;;;;;4993489;28;20521;-76
2022/01/06 05:36:23;;;;;;;7.65;5.45;;;20.60;53.40;;;;;;4993152;28;20606;-76
2022/01/06 05:38:49;;;;;;;8.95;5.18;;;20.60;53.40;;;;;;4993280;28;20027;-76
2022/01/06 05:41:15;;;;;;;8.02;5.00;;;20.60;53.50;;;;;;4993237;28;20022;-76
2022/01/06 05:43:40;;;;;;;8.50;5.00;;;20.60;53.50;;;;;;4993260;28;20026;-76
2022/01/06 05:46:06;;;;;;;7.65;4.70;;;20.60;53.50;;;;;;4975491;28;20026;-76
2022/01/06 05:48:32;;;;;;;6.55;4.72;;;20.60;53.40;;;;;;4993151;28;20105;-76
2022/01/06 05:50:58;;;;;;;7.68;4.63;;;20.60;53.40;;;;;;4993119;28;20034;-76
2022/01/06 05:53:23;;;;;;;7.55;5.00;;;20.60;53.50;;;;;;4975896;28;20254;-76
2022/01/06 05:55:52;;;;;;;6.95;4.55;;;20.60;53.40;;;;;;4975892;28;20034;-76
2022/01/06 05:58:18;;;;;;;6.70;4.70;;;20.60;53.40;;;;;;4993309;28;20026;-75
2022/01/06 06:00:43;;;;;;;7.28;4.82;;;20.60;53.40;;;;;;4992829;28;20038;-75
2022/01/06 06:03:09;;;;;;;6.85;4.75;;;20.50;53.40;;;;;;4993031;28;20027;-75
2022/01/06 06:05:35;;;;;;;6.78;4.82;;;20.60;53.40;;;;;;4993032;28;20034;-76
2022/01/06 06:08:01;;;;;;;6.85;4.78;;;20.60;53.50;;;;;;4992495;28;20023;-75
2022/01/06 06:10:27;;;;;;;6.88;4.70;;;20.50;53.40;;;;;;4975412;28;20038;-75
2022/01/06 06:12:53;;;;;;;8.48;4.72;;;20.50;53.40;;;;;;4992700;28;20565;-76
2022/01/06 06:15:20;;;;;;;8.13;4.80;;;20.50;53.30;;;;;;4992726;28;20049;-75
2022/01/06 06:17:46;;;;;;;6.18;4.25;;;20.50;53.30;;;;;;5095558;23;20133;-78
2022/01/06 06:20:12;;;;;;;7.70;4.57;;;20.50;53.20;;;;;;5000635;28;20030;-78
2022/01/06 06:22:38;;;;;;;7.30;4.40;;;20.50;53.20;;;;;;5011803;28;20035;-78
2022/01/06 06:25:05;;;;;;;7.93;4.60;;;20.50;53.20;;;;;;5032237;28;20030;-78
2022/01/06 06:27:31;;;;;;;7.88;4.50;;;20.50;53.30;;;;;;5031529;28;20036;-78
2022/01/06 06:29:56;;;;;;;6.13;4.35;;;20.50;53.20;;;;;;5014491;28;20029;-78
2022/01/06 06:32:35;;;;;;;7.18;4.35;;;20.50;53.30;;;;;;5014629;28;20060;-78
2022/01/06 06:35:35;;;;;;;7.57;4.70;;;20.50;53.30;;;;;;5032312;28;20060;-79
2022/01/06 06:41:38;;;;;;;8.32;4.28;;;20.60;53.20;;;;;;4984516;28;20132;-80
2022/01/06 06:44:04;;;;;;;7.45;4.70;;;20.50;53.00;;;;;;4957328;28;20064;-79
2022/01/06 06:46:30;;;;;;;6.18;4.22;;;20.50;53.00;;;;;;4972914;28;20123;-79
2022/01/06 06:48:58;;;;;;;6.97;4.03;;;20.60;53.10;;;;;;4981784;28;20033;-79
2022/01/06 06:51:24;;;;;;;5.88;4.10;;;20.60;53.10;;;;;;5014378;28;20049;-80
2022/01/06 06:53:51;;;;;;;6.63;4.20;;;20.50;53.00;;;;;;4997960;28;20049;-79
2022/01/06 06:56:17;;;;;;;6.63;3.83;;;20.60;53.10;;;;;;4997675;28;20033;-79
2022/01/06 06:58:43;;;;;;;6.82;4.20;;;20.60;53.00;;;;;;5014144;28;20060;-79
2022/01/06 07:01:12;;;;;;;6.38;3.90;;;20.60;53.10;;;;;;5032062;28;20053;-79
2022/01/06 07:04:02;;;;;;;6.15;4.03;;;20.60;53.10;;;;;;5014490;28;20033;-79
2022/01/06 07:06:33;;;;;;;6.97;4.30;;;20.60;53.00;;;;;;4997813;28;20041;-80
2022/01/06 07:09:26;;;;;;;7.07;4.20;;;20.60;53.10;;;;;;4998283;28;20036;-79
2022/01/06 07:12:21;;;;;;;5.93;3.95;;;20.50;53.00;;;;;;4983309;28;20029;-80
2022/01/06 07:14:54;;;;;;;6.75;4.22;;;20.50;53.10;;;;;;4983340;28;20057;-80
2022/01/06 07:21:11;;;;;;;6.57;4.10;;;20.50;53.00;;;;;;4987886;28;20033;-80
2022/01/06 07:23:54;;;;;;;5.60;3.90;;;20.50;53.10;;;;;;5014223;28;20470;-80
2022/01/06 07:26:31;;;;;;;5.45;3.80;;;20.50;53.10;;;;;;5014118;28;20037;-80
2022/01/06 07:29:17;;;;;;;7.22;4.05;;;20.50;53.20;;;;;;5002896;28;20057;-80
2022/01/06 07:31:55;;;;;;;5.72;3.72;;;20.50;53.10;;;;;;5014198;28;20022;-79
2022/01/06 07:34:24;;;;;;;5.65;3.88;;;20.50;53.10;;;;;;5031688;28;20033;-79
2022/01/06 07:41:08;;;;;;;6.15;3.80;;;20.50;53.70;;;;;;4980044;28;20044;-80
2022/01/06 07:43:57;;;;;;;5.65;3.78;;;20.50;53.00;;;;;;5001903;28;20529;-80
2022/01/06 07:51:13;;;;;;;;;;;;;;;;;;;;;
2022/01/06 07:53:39;;;;;;;6.30;3.92;;;20.50;52.90;;;;;;4951719;28;20038;-80
2022/01/06 08:00:13;;;;;;;6.32;4.07;;;20.50;52.90;;;;;;4871891;29;20039;-80
2022/01/06 08:02:39;;;;;;;6.22;3.65;;;20.50;53.00;;;;;;4938096;29;20042;-80
2022/01/06 08:05:09;;;;;;;5.93;3.72;;;20.50;53.70;;;;;;4982427;28;20421;-79
2022/01/06 08:07:35;;;;;;;6.13;3.40;;;20.50;53.00;;;;;;5000520;28;20041;-80
2022/01/06 08:10:01;;;;;;;5.75;3.45;;;20.50;52.90;;;;;;5034447;28;20478;-80
2022/01/06 08:13:19;;;;;;;6.35;3.97;;;20.50;52.90;;;;;;5001156;28;20030;-80
2022/01/06 08:19:07;;;;;;;5.90;3.65;;;20.50;52.80;;;;;;5002519;28;20514;-80
2022/01/06 08:21:33;;;;;;;4.55;3.38;;;20.50;52.70;;;;;;5016632;28;20031;-80
2022/01/06 08:23:59;;;;;;;6.05;3.72;;;20.50;52.70;;;;;;5034166;28;20025;-79
2022/01/06 08:26:25;;;;;;;5.60;3.70;;;20.50;52.80;;;;;;5016167;28;20030;-79
2022/01/06 08:28:50;;;;;;;5.85;3.67;;;20.50;52.80;;;;;;5034096;28;20021;-80
2022/01/06 08:31:16;;;;;;;6.18;3.90;;;20.50;52.90;;;;;;5034197;28;20508;-80
2022/01/06 08:33:42;;;;;;;6.60;4.00;;;20.50;52.80;;;;;;5016496;28;20100;-80
2022/01/06 08:36:08;;;;;;;6.00;3.60;;;20.50;52.90;;;;;;5015828;28;20397;-79
2022/01/06 08:38:34;;;;;;;5.88;3.75;;;20.50;52.90;;;;;;5016555;28;20487;-80
2022/01/06 08:40:59;;;;;;;6.32;3.72;;;20.50;52.80;;;;;;5034083;28;20036;-79
2022/01/06 08:43:27;;;;;;;6.28;3.75;;;20.50;52.90;;;;;;5033916;28;20389;-79
2022/01/06 08:45:55;;;;;;;5.70;3.45;;;20.50;52.80;;;;;;5033495;28;20029;-79
2022/01/06 08:48:21;;;;;;;6.38;3.58;;;20.50;52.80;;;;;;5016082;28;20087;-79
2022/01/06 08:50:47;;;;;;;4.85;3.28;;;20.50;52.80;;;;;;5033700;28;20045;-79
2022/01/06 08:53:13;;;;;;;5.93;3.63;;;20.50;53.50;;;;;;5033697;28;20045;-80
2022/01/06 08:55:38;;;;;;;6.45;3.85;;;20.50;52.90;;;;;;5033658;28;20033;-79
2022/01/06 08:58:04;;;;;;;5.60;3.35;;;20.50;52.90;;;;;;5015686;28;20029;-79
2022/01/06 09:00:30;;;;;;;5.97;3.67;;;20.50;52.90;;;;;;5033536;28;20034;-79
2022/01/06 09:02:57;;;;;;;5.30;3.50;;;20.50;52.80;;;;;;4999617;28;20072;-79
2022/01/06 09:05:23;;;;;;;6.88;4.00;;;20.50;52.80;;;;;;5015408;28;20033;-80
2022/01/06 09:07:50;;;;;;;5.50;3.65;;;20.50;52.70;;;;;;4999071;28;20030;-79
2022/01/06 09:10:16;;;;;;;5.18;3.40;;;20.50;52.80;;;;;;5033187;28;20474;-79
2022/01/06 09:12:42;;;;;;;5.05;3.30;;;20.50;52.80;;;;;;5015766;28;20030;-79
2022/01/06 09:15:09;;;;;;;5.22;3.40;;;20.50;52.70;;;;;;5033359;28;20489;-80
2022/01/06 09:17:36;;;;;;;5.68;3.50;;;20.50;52.80;;;;;;5015406;28;20505;-79
2022/01/06 09:20:06;;;;;;;6.15;3.60;;;20.60;52.90;;;;;;5015568;28;20087;-80
2022/01/06 09:22:32;;;;;;;5.82;3.50;;;20.50;52.60;;;;;;4999126;28;20470;-80
2022/01/06 09:24:58;;;;;;;5.35;3.28;;;20.60;52.70;;;;;;5015404;28;20021;-79
2022/01/06 09:27:24;;;;;;;5.55;3.58;;;20.60;52.50;;;;;;5015053;28;20032;-79
2022/01/06 09:29:53;;;;;;;5.10;3.42;;;20.60;52.30;;;;;;5015464;28;20056;-79
2022/01/06 09:32:19;;;;;;;5.03;3.40;;;20.60;52.50;;;;;;5015356;28;20118;-79
2022/01/06 09:34:45;;;;;;;7.75;3.55;;;20.60;52.50;;;;;;4999008;28;20040;-80
2022/01/06 09:37:11;;;;;;;5.40;3.42;;;20.60;52.50;;;;;;4998576;28;20065;-79
2022/01/06 09:39:37;;;;;;;4.32;3.38;;;20.60;52.60;;;;;;5015167;28;20029;-79
2022/01/06 09:42:03;;;;;;;6.55;3.40;;;20.60;52.60;;;;;;5015108;28;20025;-79
2022/01/06 09:44:30;;;;;;;5.45;3.80;;;20.60;52.50;;;;;;5032691;28;20585;-79
2022/01/06 09:46:56;;;;;;;6.72;3.78;;;20.60;52.60;;;;;;5014620;28;20021;-79
2022/01/06 09:49:23;;;;;;;5.88;3.83;;;20.60;52.90;;;;;;5014886;28;20033;-80
2022/01/06 09:51:51;;;;;;;5.00;3.50;;;20.60;53.20;;;;;;5014909;28;20496;-80
2022/01/06 09:54:18;;;;;;;5.78;3.20;;;20.60;52.70;;;;;;4998502;28;20045;-80
2022/01/06 09:56:44;;;;;;;5.63;3.65;;;20.60;52.80;;;;;;5032091;28;20548;-79
2022/01/06 09:59:09;;;;;;;6.07;3.35;;;20.60;52.70;;;;;;5032372;28;20025;-80
2022/01/06 10:01:35;;;;;;;5.30;3.25;;;20.60;52.60;;;;;;4998507;28;20053;-79
2022/01/06 10:04:01;;;;;;;4.55;3.03;;;20.60;52.60;;;;;;5015093;28;20493;-79
2022/01/06 10:06:28;;;;;;;4.07;3.03;;;20.60;52.70;;;;;;5031927;28;20021;-80
2022/01/06 10:09:01;;;;;;;4.47;3.10;;;20.60;52.70;;;;;;5032314;28;20099;-80
2022/01/06 10:11:30;;;;;;;4.15;3.13;;;20.60;52.40;;;;;;5014694;28;20029;-80
2022/01/06 10:14:20;;;;;;;6.88;3.67;;;20.60;52.80;;;;;;5014484;28;20151;-80
2022/01/06 10:16:50;;;;;;;;;;;20.70;52.80;;;;;;5031952;28;20023;-80
2022/01/06 10:19:16;;;;;;;;;;;20.70;52.70;;;;;;5014446;28;19912;-81
2022/01/06 10:21:45;;;;;;;5.35;3.33;;;20.70;52.40;;;;;;5014867;28;19909;-81
2022/01/06 10:24:14;;;;;;;4.75;3.20;;;20.80;52.20;;;;;;5032082;28;20401;-81
2022/01/06 10:26:56;;;;;;;5.45;3.20;;;20.70;52.10;;;;;;5031480;28;20541;-80
2022/01/06 10:29:27;;;;;;;5.13;3.58;;;20.70;52.20;;;;;;5014290;28;20030;-80
2022/01/06 10:32:01;;;;;;;5.60;3.22;;;20.80;52.20;;;;;;5031888;28;20107;-80
2022/01/06 10:34:32;;;;;;;5.00;3.40;;;20.70;52.20;;;;;;5032060;28;20031;-80
2022/01/06 10:36:57;;;;;;;5.82;3.60;;;20.70;52.40;;;;;;5013863;28;20030;-80
2022/01/06 10:39:23;;;;;;;5.97;3.38;;;20.70;52.00;;;;;;5014064;28;20039;-80
2022/01/06 10:41:51;;;;;;;5.57;3.15;;;20.70;52.20;;;;;;4998007;28;20021;-81
2022/01/06 10:44:17;;;;;;;4.45;3.00;;;20.70;52.10;;;;;;4998041;28;20428;-81
2022/01/06 10:46:45;;;;;;;4.88;3.22;;;20.70;52.00;;;;;;4997736;28;20080;-80
2022/01/06 10:49:16;;;;;;;5.60;3.08;;;20.60;52.30;;;;;;5014225;28;20590;-81
2022/01/06 10:51:51;;;;;;;5.88;3.45;;;20.60;52.60;;;;;;4998010;28;20029;-80
2022/01/06 10:54:23;;;;;;;4.70;3.28;;;20.60;52.70;;;;;;4981780;28;20452;-82
2022/01/06 10:57:04;;;;;;;4.38;3.20;;;20.60;52.70;;;;;;4997435;28;20092;-81
2022/01/06 10:59:33;;;;;;;5.30;3.25;;;20.60;52.40;;;;;;5031697;28;20041;-81
2022/01/06 11:02:00;;;;;;;5.03;3.20;;;20.60;52.50;;;;;;5014056;28;20037;-80
2022/01/06 11:04:26;;;;;;;5.00;2.95;;;20.60;52.50;;;;;;5014137;28;20087;-80
2022/01/06 11:06:52;;;;;;;4.05;2.75;;;20.60;52.50;;;;;;4997544;28;20036;-80
2022/01/06 11:09:19;;;;;;;4.88;3.05;;;20.60;52.40;;;;;;5032049;28;20026;-80
2022/01/06 11:14:15;;;;;;;3.92;2.90;;;20.60;52.50;;;;;;5031641;28;20034;-79
2022/01/06 11:16:42;;;;;;;;;;;20.60;52.40;;;;;;5014200;28;20751;-79
2022/01/06 11:19:17;;;;;;;5.47;2.80;;;20.60;52.60;;;;;;5013759;28;19917;-79
2022/01/06 11:21:48;;;;;;;4.97;3.00;;;20.60;52.30;;;;;;5013873;28;20021;-79
2022/01/06 11:24:17;;;;;;;6.15;3.50;;;20.70;52.30;;;;;;5013999;28;20499;-82
2022/01/06 11:27:04;;;;;;;5.13;3.40;;;20.70;52.40;;;;;;5013514;28;20096;-80
2022/01/06 11:29:36;;;;;;;3.97;2.97;;;20.70;52.30;;;;;;5015831;28;20398;-80
2022/01/06 11:32:23;;;;;;;5.45;3.40;;;20.70;52.30;;;;;;5035348;28;20083;-80
2022/01/06 11:35:11;;;;;;;4.15;2.55;;;20.80;52.50;;;;;;5017199;28;20063;-80
2022/01/06 11:37:47;;;;;;;5.18;3.20;;;20.70;52.30;;;;;;5001115;28;20068;-80
2022/01/06 11:40:15;;;;;;;5.68;3.13;;;20.80;52.40;;;;;;5035299;28;20036;-80
2022/01/06 11:42:53;;;;;;;4.68;3.15;;;20.80;52.30;;;;;;5017573;28;20042;-80
2022/01/06 11:45:19;;;;;;;6.50;3.22;;;20.80;52.30;;;;;;5017356;28;20038;-80
2022/01/06 11:47:45;;;;;;;4.35;2.83;;;20.70;52.30;;;;;;5016791;28;20094;-80
2022/01/06 11:50:14;;;;;;;6.40;3.20;;;20.70;52.10;;;;;;5035126;28;20481;-80
2022/01/06 11:53:00;;;;;;;5.28;3.30;;;20.70;52.10;;;;;;5017534;28;20087;-80
2022/01/06 11:55:39;;;;;;;5.78;3.17;;;20.70;52.10;;;;;;5002045;28;20037;-80
2022/01/06 11:58:22;;;;;;;4.65;3.00;;;20.70;52.20;;;;;;5003622;28;20034;-81
2022/01/06 12:01:05;;;;;;;4.57;2.80;;;20.70;52.30;;;;;;5003448;28;20068;-80
2022/01/06 12:03:40;;;;;;;6.07;3.40;;;20.70;52.20;;;;;;5017321;28;20116;-80
2022/01/06 12:06:07;;;;;;;6.07;3.28;;;20.70;52.10;;;;;;5000483;28;20310;-80
2022/01/06 12:08:42;;;;;;;4.03;2.70;;;20.70;52.20;;;;;;5017149;28;20386;-81
2022/01/06 12:11:21;;;;;;;4.60;2.95;;;20.70;52.20;;;;;;5017124;28;20033;-79
2022/01/06 12:13:50;;;;;;;4.95;3.13;;;20.70;53.00;;;;;;5000778;28;20409;-80
2022/01/06 12:16:29;;;;;;;4.78;3.10;;;20.70;52.30;;;;;;5034217;28;20116;-80
2022/01/06 12:18:57;;;;;;;5.22;3.15;;;20.70;52.60;;;;;;4989001;23;20050;-73
2022/01/06 12:21:23;;;;;;;4.50;2.95;;;20.80;52.30;;;;;;4965458;28;20036;-74
2022/01/06 12:24:09;;;;;;;5.32;3.40;;;20.80;52.30;;;;;;4994476;28;20034;-74
2022/01/06 12:26:36;;;;;;;5.40;2.97;;;20.80;52.20;;;;;;4977312;28;20505;-74
2022/01/06 12:29:04;;;;;;;4.60;2.92;;;20.80;52.20;;;;;;4994835;28;20027;-74
2022/01/06 12:31:32;;;;;;;4.57;3.25;;;20.80;52.10;;;;;;4994747;28;20042;-74
2022/01/06 12:34:01;;;;;;;5.47;3.15;;;20.80;52.10;;;;;;4994945;28;20026;-74
2022/01/06 12:36:29;;;;;;;3.77;2.83;;;20.80;52.00;;;;;;4994504;28;20027;-74
2022/01/06 12:38:54;;;;;;;5.07;3.15;;;20.80;52.10;;;;;;4994590;28;20035;-74
2022/01/06 12:41:28;;;;;;;3.85;2.70;;;20.70;51.90;;;;;;4993886;28;20289;-75
2022/01/06 12:43:55;;;;;;;4.15;2.88;;;20.70;51.80;;;;;;4994563;28;20061;-75
2022/01/06 12:46:23;;;;;;;5.78;3.38;;;20.70;52.00;;;;;;4976954;28;20085;-75
2022/01/06 12:48:51;;;;;;;6.70;3.10;;;20.70;52.10;;;;;;4994430;28;20026;-74
2022/01/06 12:51:28;;;;;;;4.75;3.00;;;20.70;52.00;;;;;;4994028;28;20037;-75
2022/01/06 12:54:11;;;;;;;8.05;3.20;;;20.70;52.20;;;;;;4994560;28;20113;-75
2022/01/06 12:57:02;;;;;;;9.15;3.45;;;20.70;52.00;;;;;;4994132;28;20139;-75
2022/01/06 12:59:34;;;;;;;13.35;3.78;;;20.70;53.20;;;;;;4977033;28;20037;-75
2022/01/06 13:02:02;;;;;;;14.13;5.75;;;20.70;53.60;;;;;;4992990;28;20026;-75
2022/01/06 13:04:34;;;;;;;13.75;5.53;;;20.60;52.60;;;;;;4976910;28;20479;-75
2022/01/06 13:07:02;;;;;;;10.93;3.78;;;20.70;52.50;;;;;;4993918;28;20620;-75
2022/01/06 13:09:32;;;;;;;10.07;3.70;;;20.60;52.80;;;;;;4994315;28;20093;-75
2022/01/06 13:12:04;;;;;;;8.98;3.95;;;20.60;52.90;;;;;;4994165;28;20041;-75
2022/01/06 13:14:34;;;;;;;13.68;4.13;;;20.60;53.00;;;;;;4993939;28;20081;-74
2022/01/06 13:17:17;;;;;;;6.47;3.42;;;20.60;53.00;;;;;;4992464;28;20042;-75
2022/01/06 13:20:00;;;;;;;6.82;3.72;;;20.60;53.10;;;;;;4976303;28;20030;-75
2022/01/06 13:25:38;;;;;;;6.28;3.78;;;20.60;53.30;;;;;;4993793;28;20018;-74
2022/01/06 13:28:11;;;;;;;5.20;3.42;;;20.60;53.30;;;;;;4993339;28;20026;-74
2022/01/06 13:30:46;;;;;;;5.68;3.22;;;20.60;53.10;;;;;;4993535;28;20033;-75
2022/01/06 13:33:23;;;;;;;6.03;3.20;;;20.50;52.90;;;;;;4993613;28;20384;-75
2022/01/06 13:36:00;;;;;;;6.97;3.72;;;20.60;53.00;;;;;;4993408;28;20030;-75